createdAt,value
2023-03-29T00:00:29.159Z,70.04
2023-03-29T00:01:35.881Z,69.67
2023-03-29T00:02:30.832Z,69.98
2023-03-29T00:03:30.075Z,70.18
2023-03-29T00:04:30.386Z,70.36
2023-03-29T00:05:30.606Z,70.15
2023-03-29T00:06:30.889Z,70.36
2023-03-29T00:07:31.189Z,70.15
2023-03-29T00:08:31.585Z,70.36
2023-03-29T00:09:31.838Z,69.84
2023-03-29T00:10:32.148Z,70.46
2023-03-29T00:11:32.441Z,70.49
2023-03-29T00:12:32.675Z,71.00
2023-03-29T00:13:32.999Z,70.79
2023-03-29T00:14:33.281Z,71.00
2023-03-29T00:15:33.621Z,71.21
2023-03-29T00:16:33.917Z,70.79
2023-03-29T00:17:34.240Z,71.11
2023-03-29T00:18:34.514Z,71.11
2023-03-29T00:19:34.817Z,71.31
2023-03-29T00:20:35.156Z,71.41
2023-03-29T00:21:35.421Z,71.72
2023-03-29T00:22:35.665Z,71.93
2023-03-29T00:23:36.024Z,71.72
2023-03-29T00:24:36.327Z,71.83
2023-03-29T00:25:36.513Z,71.62
2023-03-29T00:26:36.865Z,71.93
2023-03-29T00:27:37.221Z,71.48
2023-03-29T00:28:37.526Z,71.00
2023-03-29T00:29:37.768Z,71.31
2023-03-29T00:30:38.104Z,71.51
2023-03-29T00:31:38.487Z,71.41
2023-03-29T00:32:38.681Z,71.28
2023-03-29T00:33:38.897Z,71.28
2023-03-29T00:34:39.164Z,71.38
2023-03-29T00:35:39.515Z,70.76
2023-03-29T00:36:39.766Z,71.62
2023-03-29T00:37:40.126Z,71.72
2023-03-29T00:38:40.398Z,71.62
2023-03-29T00:39:40.700Z,71.41
2023-03-29T00:40:40.942Z,71.31
2023-03-29T00:41:41.206Z,71.11
2023-03-29T00:42:41.580Z,71.04
2023-03-29T00:43:41.806Z,71.55
2023-03-29T00:44:42.129Z,72.06
2023-03-29T00:45:43.321Z,71.96
2023-03-29T00:46:42.795Z,71.66
2023-03-29T00:47:43.033Z,71.86
2023-03-29T00:48:43.324Z,71.86
2023-03-29T00:49:43.544Z,71.45
2023-03-29T00:50:43.856Z,71.96
2023-03-29T00:51:44.222Z,71.86
2023-03-29T00:52:44.527Z,71.45
2023-03-29T00:53:44.681Z,71.66
2023-03-29T00:54:45.033Z,71.75
2023-03-29T00:55:45.366Z,71.96
2023-03-29T00:56:45.606Z,71.86
2023-03-29T00:57:45.892Z,71.96
2023-03-29T00:58:46.164Z,71.75
2023-03-29T00:59:46.404Z,71.86
2023-03-29T01:00:46.712Z,71.55
2023-03-29T01:01:47.125Z,71.96
2023-03-29T01:02:47.340Z,71.45
2023-03-29T01:03:47.634Z,71.66
2023-03-29T01:04:47.887Z,71.21
2023-03-29T01:05:48.086Z,71.31
2023-03-29T01:06:48.500Z,71.21
2023-03-29T01:07:48.654Z,71.31
2023-03-29T01:08:48.994Z,71.34
2023-03-29T01:09:49.298Z,70.73
2023-03-29T01:10:49.565Z,71.14
2023-03-29T01:11:49.839Z,71.21
2023-03-29T01:12:50.120Z,71.00
2023-03-29T01:13:50.448Z,70.79
2023-03-29T01:14:50.802Z,71.00
2023-03-29T01:15:51.001Z,70.79
2023-03-29T01:16:51.307Z,70.90
2023-03-29T01:17:51.588Z,71.11
2023-03-29T01:18:51.856Z,70.90
2023-03-29T01:19:52.136Z,70.18
2023-03-29T01:20:52.430Z,70.28
2023-03-29T01:21:52.709Z,69.77
2023-03-29T01:22:52.976Z,69.98
2023-03-29T01:23:53.373Z,68.95
2023-03-29T01:24:53.529Z,69.36
2023-03-29T01:25:53.704Z,69.15
2023-03-29T01:26:54.112Z,69.09
2023-03-29T01:27:54.367Z,69.18
2023-03-29T01:28:54.681Z,69.39
2023-03-29T01:29:54.953Z,69.39
2023-03-29T01:30:55.306Z,69.09
2023-03-29T01:31:55.600Z,69.29
2023-03-29T01:32:55.900Z,69.39
2023-03-29T01:33:56.153Z,69.70
2023-03-29T01:34:56.472Z,69.70
2023-03-29T01:35:56.736Z,69.60
2023-03-29T01:36:57.137Z,69.39
2023-03-29T01:37:57.288Z,69.70
2023-03-29T01:38:57.580Z,69.80
2023-03-29T01:39:57.899Z,69.49
2023-03-29T01:40:58.225Z,69.60
2023-03-29T01:41:58.425Z,69.70
2023-03-29T01:42:58.723Z,69.90
2023-03-29T01:43:59.038Z,69.80
2023-03-29T01:44:59.322Z,70.01
2023-03-29T01:45:59.711Z,70.32
2023-03-29T01:46:59.840Z,69.90
2023-03-29T01:48:00.193Z,69.70
2023-03-29T01:49:00.475Z,70.01
2023-03-29T01:50:00.743Z,70.32
2023-03-29T01:51:01.292Z,70.11
2023-03-29T01:52:01.340Z,70.01
2023-03-29T01:53:01.653Z,70.01
2023-03-29T01:54:01.988Z,70.21
2023-03-29T01:55:02.310Z,70.42
2023-03-29T01:56:02.548Z,70.52
2023-03-29T01:57:03.010Z,70.52
2023-03-29T01:58:03.151Z,70.73
2023-03-29T01:59:04.198Z,71.04
2023-03-29T02:00:03.665Z,71.14
2023-03-29T02:01:04.407Z,70.94
2023-03-29T02:02:04.308Z,70.83
2023-03-29T02:03:04.641Z,71.14
2023-03-29T02:04:04.861Z,71.34
2023-03-29T02:05:05.142Z,71.14
2023-03-29T02:06:05.440Z,71.04
2023-03-29T02:07:05.708Z,71.04
2023-03-29T02:08:06.030Z,70.83
2023-03-29T02:09:06.393Z,70.62
2023-03-29T02:10:06.630Z,70.94
2023-03-29T02:11:06.949Z,70.62
2023-03-29T02:12:07.201Z,70.83
2023-03-29T02:13:07.516Z,70.94
2023-03-29T02:14:07.748Z,70.83
2023-03-29T02:15:08.014Z,70.73
2023-03-29T02:16:08.404Z,70.83
2023-03-29T02:17:08.531Z,70.73
2023-03-29T02:18:08.893Z,70.94
2023-03-29T02:19:09.124Z,70.94
2023-03-29T02:20:09.464Z,70.73
2023-03-29T02:21:09.692Z,70.73
2023-03-29T02:22:09.994Z,70.73
2023-03-29T02:23:10.340Z,70.83
2023-03-29T02:24:10.745Z,70.94
2023-03-29T02:25:10.905Z,70.94
2023-03-29T02:26:11.169Z,71.24
2023-03-29T02:27:11.381Z,71.24
2023-03-29T02:28:11.782Z,71.14
2023-03-29T02:29:12.091Z,71.14
2023-03-29T02:30:12.326Z,70.94
2023-03-29T02:31:12.671Z,70.70
2023-03-29T02:32:12.959Z,70.79
2023-03-29T02:33:13.221Z,70.79
2023-03-29T02:34:13.483Z,70.59
2023-03-29T02:35:13.798Z,70.94
2023-03-29T02:36:14.131Z,71.04
2023-03-29T02:37:14.414Z,71.04
2023-03-29T02:38:14.713Z,71.14
2023-03-29T02:39:15.006Z,71.11
2023-03-29T02:40:15.236Z,71.00
2023-03-29T02:41:15.532Z,71.00
2023-03-29T02:42:15.849Z,71.00
2023-03-29T02:43:16.171Z,70.79
2023-03-29T02:44:16.492Z,71.24
2023-03-29T02:45:16.836Z,71.34
2023-03-29T02:46:17.133Z,71.45
2023-03-29T02:47:17.773Z,71.45
2023-03-29T02:48:17.766Z,71.34
2023-03-29T02:49:18.031Z,71.45
2023-03-29T02:50:18.254Z,71.45
2023-03-29T02:51:20.027Z,71.31
2023-03-29T02:52:18.840Z,71.11
2023-03-29T02:53:19.129Z,71.00
2023-03-29T02:54:19.315Z,70.90
2023-03-29T02:55:19.572Z,71.04
2023-03-29T02:56:19.897Z,71.34
2023-03-29T02:57:20.179Z,71.75
2023-03-29T02:58:20.587Z,71.66
2023-03-29T02:59:21.594Z,71.75
2023-03-29T03:00:21.043Z,71.66
2023-03-29T03:01:21.374Z,71.66
2023-03-29T03:02:21.606Z,71.55
2023-03-29T03:03:22.049Z,71.45
2023-03-29T03:04:22.185Z,71.45
2023-03-29T03:05:22.426Z,71.55
2023-03-29T03:06:22.782Z,71.55
2023-03-29T03:07:22.946Z,71.55
2023-03-29T03:08:23.388Z,71.55
2023-03-29T03:09:23.563Z,71.55
2023-03-29T03:10:23.829Z,71.55
2023-03-29T03:11:24.563Z,71.34
2023-03-29T03:12:24.319Z,71.31
2023-03-29T03:13:24.673Z,71.31
2023-03-29T03:14:25.783Z,71.34
2023-03-29T03:15:25.237Z,71.24
2023-03-29T03:16:25.592Z,71.45
2023-03-29T03:17:25.829Z,71.66
2023-03-29T03:18:26.085Z,71.66
2023-03-29T03:19:26.411Z,71.55
2023-03-29T03:20:26.687Z,71.55
2023-03-29T03:21:27.042Z,71.55
2023-03-29T03:22:27.324Z,71.55
2023-03-29T03:23:27.644Z,71.66
2023-03-29T03:24:28.808Z,71.55
2023-03-29T03:25:28.249Z,71.66
2023-03-29T03:26:28.516Z,71.66
2023-03-29T03:27:28.851Z,71.55
2023-03-29T03:28:29.111Z,71.75
2023-03-29T03:29:29.448Z,71.75
2023-03-29T03:30:29.747Z,71.86
2023-03-29T03:31:30.027Z,71.83
2023-03-29T03:32:30.383Z,71.86
2023-03-29T03:33:30.613Z,72.17
2023-03-29T03:34:30.890Z,72.38
2023-03-29T03:35:31.207Z,72.38
2023-03-29T03:36:31.471Z,72.17
2023-03-29T03:37:31.874Z,72.27
2023-03-29T03:38:32.162Z,72.27
2023-03-29T03:39:32.431Z,72.38
2023-03-29T03:40:32.744Z,72.47
2023-03-29T03:41:33.031Z,72.58
2023-03-29T03:42:33.375Z,72.68
2023-03-29T03:43:33.639Z,72.78
2023-03-29T03:44:33.931Z,72.78
2023-03-29T03:45:34.234Z,72.68
2023-03-29T03:46:34.533Z,72.99
2023-03-29T03:47:34.892Z,73.09
2023-03-29T03:48:35.215Z,73.13
2023-03-29T03:49:35.431Z,73.23
2023-03-29T03:50:35.768Z,73.33
2023-03-29T03:51:36.041Z,73.33
2023-03-29T03:52:36.342Z,73.40
2023-03-29T03:53:36.631Z,73.19
2023-03-29T03:54:36.980Z,73.33
2023-03-29T03:55:37.330Z,73.44
2023-03-29T03:56:37.590Z,73.54
2023-03-29T03:57:37.808Z,73.54
2023-03-29T03:58:38.142Z,73.64
2023-03-29T03:59:38.393Z,73.54
2023-03-29T04:00:38.705Z,73.54
2023-03-29T04:01:39.026Z,73.64
2023-03-29T04:02:39.374Z,73.54
2023-03-29T04:03:39.776Z,73.54
2023-03-29T04:04:40.780Z,73.44
2023-03-29T04:05:40.230Z,73.54
2023-03-29T04:06:43.125Z,73.54
2023-03-29T04:07:40.956Z,73.64
2023-03-29T04:08:41.134Z,73.74
2023-03-29T04:09:41.423Z,73.85
2023-03-29T04:10:41.643Z,73.85
2023-03-29T04:11:41.992Z,73.95
2023-03-29T04:12:42.207Z,74.15
2023-03-29T04:13:42.518Z,74.36
2023-03-29T04:14:42.862Z,74.46
2023-03-29T04:15:43.217Z,74.36
2023-03-29T04:16:43.377Z,74.46
2023-03-29T04:17:43.692Z,74.46
2023-03-29T04:18:44.018Z,74.46
2023-03-29T04:19:44.136Z,74.57
2023-03-29T04:20:45.326Z,74.80
2023-03-29T04:21:44.729Z,74.77
2023-03-29T04:22:45.028Z,74.67
2023-03-29T04:23:45.252Z,74.67
2023-03-29T04:24:45.548Z,74.67
2023-03-29T04:25:45.841Z,74.67
2023-03-29T04:26:47.016Z,74.67
2023-03-29T04:27:46.494Z,74.67
2023-03-29T04:28:46.648Z,74.57
2023-03-29T04:29:47.852Z,74.87
2023-03-29T04:30:47.368Z,74.87
2023-03-29T04:31:47.533Z,74.98
2023-03-29T04:32:47.840Z,75.18
2023-03-29T04:33:48.022Z,75.32
2023-03-29T04:34:48.437Z,75.52
2023-03-29T04:35:48.717Z,75.63
2023-03-29T04:36:49.096Z,75.73
2023-03-29T04:37:49.343Z,75.84
2023-03-29T04:38:49.601Z,75.94
2023-03-29T04:39:49.884Z,76.14
2023-03-29T04:40:50.217Z,76.25
2023-03-29T04:41:50.475Z,76.45
2023-03-29T04:42:50.664Z,76.45
2023-03-29T04:43:50.983Z,76.56
2023-03-29T04:44:52.200Z,76.45
2023-03-29T04:45:51.652Z,76.45
2023-03-29T04:46:52.073Z,76.45
2023-03-29T04:47:52.304Z,76.56
2023-03-29T04:48:52.541Z,76.66
2023-03-29T04:49:52.823Z,76.56
2023-03-29T04:50:53.033Z,76.66
2023-03-29T04:51:53.328Z,76.66
2023-03-29T04:52:53.622Z,76.66
2023-03-29T04:53:53.812Z,76.66
2023-03-29T04:54:54.080Z,76.86
2023-03-29T04:55:54.391Z,77.07
2023-03-29T04:56:54.707Z,77.17
2023-03-29T04:57:54.998Z,77.17
2023-03-29T04:58:55.330Z,77.17
2023-03-29T04:59:55.677Z,77.38
2023-03-29T05:00:56.024Z,77.24
2023-03-29T05:01:56.238Z,77.28
2023-03-29T05:02:56.616Z,77.28
2023-03-29T05:03:56.902Z,77.48
2023-03-29T05:04:57.048Z,77.69
2023-03-29T05:05:57.259Z,77.48
2023-03-29T05:06:57.614Z,77.38
2023-03-29T05:07:57.853Z,77.17
2023-03-29T05:08:58.215Z,77.28
2023-03-29T05:09:58.409Z,77.48
2023-03-29T05:10:58.750Z,77.69
2023-03-29T05:11:59.065Z,78.00
2023-03-29T05:12:59.413Z,78.00
2023-03-29T05:13:59.813Z,77.89
2023-03-29T05:15:00.003Z,77.89
2023-03-29T05:16:00.309Z,77.79
2023-03-29T05:17:00.448Z,77.79
2023-03-29T05:18:00.910Z,77.79
2023-03-29T05:19:01.116Z,77.58
2023-03-29T05:20:01.332Z,77.48
2023-03-29T05:21:01.836Z,77.24
2023-03-29T05:22:01.970Z,77.03
2023-03-29T05:23:02.216Z,76.83
2023-03-29T05:24:02.427Z,76.83
2023-03-29T05:25:02.688Z,76.73
2023-03-29T05:26:02.974Z,77.17
2023-03-29T05:27:03.174Z,77.69
2023-03-29T05:28:03.510Z,77.79
2023-03-29T05:29:03.706Z,78.00
2023-03-29T05:30:04.070Z,77.79
2023-03-29T05:31:04.886Z,77.89
2023-03-29T05:32:04.624Z,77.69
2023-03-29T05:33:04.812Z,77.69
2023-03-29T05:34:05.114Z,78.00
2023-03-29T05:35:05.423Z,78.10
2023-03-29T05:36:05.808Z,78.00
2023-03-29T05:37:05.997Z,78.00
2023-03-29T05:38:06.327Z,77.65
2023-03-29T05:39:06.655Z,77.45
2023-03-29T05:40:07.125Z,77.24
2023-03-29T05:41:07.277Z,77.38
2023-03-29T05:42:07.614Z,77.45
2023-03-29T05:43:07.971Z,77.24
2023-03-29T05:44:08.211Z,77.14
2023-03-29T05:45:08.538Z,77.38
2023-03-29T05:46:08.957Z,77.48
2023-03-29T05:47:09.150Z,77.38
2023-03-29T05:48:09.585Z,77.34
2023-03-29T05:49:09.775Z,77.14
2023-03-29T05:50:10.164Z,76.93
2023-03-29T05:51:10.426Z,76.73
2023-03-29T05:52:10.623Z,76.73
2023-03-29T05:53:11.022Z,76.62
2023-03-29T05:54:11.218Z,76.62
2023-03-29T05:55:11.628Z,76.62
2023-03-29T05:56:11.823Z,76.73
2023-03-29T05:57:12.202Z,77.03
2023-03-29T05:58:12.544Z,77.24
2023-03-29T05:59:12.770Z,77.14
2023-03-29T06:00:13.077Z,77.24
2023-03-29T06:01:13.342Z,77.38
2023-03-29T06:02:13.538Z,77.69
2023-03-29T06:03:20.244Z,77.79
2023-03-29T06:04:15.207Z,77.69
2023-03-29T06:05:14.428Z,77.48
2023-03-29T06:06:14.644Z,77.58
2023-03-29T06:07:14.945Z,77.38
2023-03-29T06:08:15.139Z,77.28
2023-03-29T06:09:15.486Z,77.17
2023-03-29T06:10:15.695Z,77.14
2023-03-29T06:11:16.125Z,77.07
2023-03-29T06:12:16.248Z,77.17
2023-03-29T06:13:16.640Z,77.48
2023-03-29T06:14:16.890Z,77.48
2023-03-29T06:15:17.127Z,77.03
2023-03-29T06:16:17.405Z,76.62
2023-03-29T06:17:17.655Z,76.62
2023-03-29T06:18:17.833Z,76.52
2023-03-29T06:19:18.237Z,76.62
2023-03-29T06:20:18.420Z,76.73
2023-03-29T06:21:18.740Z,76.42
2023-03-29T06:22:19.009Z,76.07
2023-03-29T06:23:19.361Z,75.87
2023-03-29T06:24:19.609Z,75.67
2023-03-29T06:25:19.953Z,75.25
2023-03-29T06:26:20.294Z,75.46
2023-03-29T06:27:20.546Z,75.25
2023-03-29T06:28:20.771Z,75.01
2023-03-29T06:29:21.076Z,74.60
2023-03-29T06:30:21.355Z,74.50
2023-03-29T06:31:21.681Z,74.40
2023-03-29T06:32:22.885Z,74.80
2023-03-29T06:33:22.277Z,74.50
2023-03-29T06:34:22.547Z,74.05
2023-03-29T06:35:22.765Z,73.74
2023-03-29T06:36:22.981Z,73.44
2023-03-29T06:37:23.399Z,73.54
2023-03-29T06:38:23.748Z,73.44
2023-03-29T06:39:24.012Z,73.78
2023-03-29T06:40:24.214Z,73.98
2023-03-29T06:41:24.475Z,73.64
2023-03-29T06:42:24.682Z,73.54
2023-03-29T06:43:25.055Z,73.44
2023-03-29T06:44:25.307Z,72.92
2023-03-29T06:45:26.839Z,73.02
2023-03-29T06:46:25.853Z,72.92
2023-03-29T06:47:26.089Z,72.51
2023-03-29T06:48:26.762Z,72.31
2023-03-29T06:49:26.628Z,73.06
2023-03-29T06:50:26.863Z,73.06
2023-03-29T06:51:27.234Z,72.92
2023-03-29T06:52:27.548Z,72.72
2023-03-29T06:53:27.711Z,72.41
2023-03-29T06:54:28.072Z,72.10
2023-03-29T06:55:28.407Z,73.16
2023-03-29T06:56:28.741Z,73.16
2023-03-29T06:57:28.952Z,73.27
2023-03-29T06:58:29.196Z,72.82
2023-03-29T06:59:30.398Z,72.51
2023-03-29T07:00:29.927Z,72.61
2023-03-29T07:01:30.117Z,72.48
2023-03-29T07:02:30.356Z,71.97
2023-03-29T07:03:30.607Z,71.45
2023-03-29T07:04:30.886Z,71.25
2023-03-29T07:05:31.214Z,70.94
2023-03-29T07:06:31.382Z,71.14
2023-03-29T07:07:31.729Z,71.25
2023-03-29T07:08:31.925Z,71.04
2023-03-29T07:09:32.319Z,71.04
2023-03-29T07:10:32.872Z,71.35
2023-03-29T07:11:32.821Z,71.01
2023-03-29T07:12:33.227Z,70.70
2023-03-29T07:13:33.418Z,70.84
2023-03-29T07:14:33.822Z,71.01
2023-03-29T07:15:34.061Z,71.01
2023-03-29T07:16:34.428Z,70.70
2023-03-29T07:17:34.785Z,71.01
2023-03-29T07:18:35.010Z,71.01
2023-03-29T07:19:36.129Z,71.21
2023-03-29T07:20:35.568Z,71.01
2023-03-29T07:21:37.877Z,70.80
2023-03-29T07:22:35.997Z,70.77
2023-03-29T07:23:36.352Z,70.56
2023-03-29T07:24:36.729Z,70.67
2023-03-29T07:25:37.013Z,70.15
2023-03-29T07:26:37.940Z,69.95
2023-03-29T07:27:37.513Z,69.81
2023-03-29T07:28:37.913Z,69.71
2023-03-29T07:29:38.249Z,69.61
2023-03-29T07:30:38.556Z,69.20
2023-03-29T07:31:38.781Z,69.10
2023-03-29T07:32:39.167Z,69.20
2023-03-29T07:33:39.498Z,68.89
2023-03-29T07:34:39.636Z,69.20
2023-03-29T07:35:39.896Z,69.40
2023-03-29T07:36:40.163Z,69.71
2023-03-29T07:37:40.408Z,69.71
2023-03-29T07:38:40.667Z,69.40
2023-03-29T07:39:41.363Z,69.81
2023-03-29T07:40:41.187Z,70.26
2023-03-29T07:41:41.425Z,70.22
2023-03-29T07:42:41.698Z,70.12
2023-03-29T07:43:41.924Z,70.43
2023-03-29T07:44:42.356Z,70.22
2023-03-29T07:45:42.566Z,70.43
2023-03-29T07:46:42.958Z,70.02
2023-03-29T07:47:43.140Z,69.89
2023-03-29T07:48:43.593Z,69.78
2023-03-29T07:49:43.796Z,69.57
2023-03-29T07:50:44.114Z,69.47
2023-03-29T07:51:44.328Z,69.27
2023-03-29T07:52:44.732Z,69.27
2023-03-29T07:53:44.902Z,69.13
2023-03-29T07:54:45.158Z,68.93
2023-03-29T07:55:47.018Z,68.83
2023-03-29T07:56:45.814Z,68.73
2023-03-29T07:57:45.951Z,68.62
2023-03-29T07:58:46.318Z,68.62
2023-03-29T07:59:46.603Z,68.62
2023-03-29T08:00:46.866Z,68.62
2023-03-29T08:01:47.152Z,68.32
2023-03-29T08:02:47.419Z,68.52
2023-03-29T08:03:47.616Z,68.38
2023-03-29T08:04:47.846Z,68.28
2023-03-29T08:05:48.106Z,68.38
2023-03-29T08:06:48.449Z,68.28
2023-03-29T08:07:48.822Z,68.15
2023-03-29T08:08:49.139Z,67.94
2023-03-29T08:09:49.228Z,68.35
2023-03-29T08:10:49.538Z,68.15
2023-03-29T08:11:49.752Z,67.84
2023-03-29T08:12:50.108Z,67.74
2023-03-29T08:13:50.588Z,67.84
2023-03-29T08:14:50.621Z,67.74
2023-03-29T08:15:50.947Z,67.94
2023-03-29T08:16:51.384Z,68.05
2023-03-29T08:17:51.703Z,68.05
2023-03-29T08:18:51.925Z,67.84
2023-03-29T08:19:52.318Z,67.84
2023-03-29T08:20:52.535Z,67.71
2023-03-29T08:21:52.987Z,67.50
2023-03-29T08:22:53.009Z,67.50
2023-03-29T08:23:53.291Z,67.64
2023-03-29T08:24:53.575Z,67.40
2023-03-29T08:25:53.843Z,67.30
2023-03-29T08:26:54.201Z,67.30
2023-03-29T08:27:54.376Z,67.64
2023-03-29T08:28:54.667Z,67.60
2023-03-29T08:29:55.258Z,67.71
2023-03-29T08:30:55.254Z,67.71
2023-03-29T08:31:55.609Z,67.91
2023-03-29T08:32:55.829Z,67.81
2023-03-29T08:33:56.093Z,67.81
2023-03-29T08:34:56.470Z,67.71
2023-03-29T08:35:56.608Z,67.60
2023-03-29T08:36:56.889Z,67.60
2023-03-29T08:37:57.165Z,67.60
2023-03-29T08:38:58.432Z,67.60
2023-03-29T08:39:57.699Z,67.81
2023-03-29T08:40:57.998Z,67.91
2023-03-29T08:41:58.241Z,67.91
2023-03-29T08:42:58.586Z,67.91
2023-03-29T08:43:58.786Z,67.71
2023-03-29T08:44:59.034Z,67.81
2023-03-29T08:45:59.360Z,68.01
2023-03-29T08:46:59.694Z,67.98
2023-03-29T08:47:59.953Z,67.88
2023-03-29T08:49:00.127Z,67.88
2023-03-29T08:50:00.499Z,67.78
2023-03-29T08:51:00.936Z,67.68
2023-03-29T08:52:01.078Z,67.68
2023-03-29T08:53:01.345Z,67.57
2023-03-29T08:54:01.554Z,67.57
2023-03-29T08:55:01.930Z,67.44
2023-03-29T08:56:03.090Z,67.34
2023-03-29T08:57:02.565Z,67.24
2023-03-29T08:58:02.711Z,67.27
2023-03-29T08:59:03.081Z,67.47
2023-03-29T09:00:03.267Z,67.88
2023-03-29T09:01:03.690Z,67.98
2023-03-29T09:02:03.852Z,68.39
2023-03-29T09:03:04.236Z,68.52
2023-03-29T09:04:04.489Z,68.42
2023-03-29T09:05:04.642Z,68.52
2023-03-29T09:06:04.972Z,68.60
2023-03-29T09:07:05.246Z,68.49
2023-03-29T09:08:05.453Z,68.84
2023-03-29T09:09:05.867Z,68.84
2023-03-29T09:10:06.023Z,68.84
2023-03-29T09:11:06.306Z,69.04
2023-03-29T09:12:06.513Z,69.24
2023-03-29T09:13:06.745Z,69.14
2023-03-29T09:14:07.046Z,69.34
2023-03-29T09:15:07.267Z,69.21
2023-03-29T09:16:07.538Z,69.11
2023-03-29T09:17:07.965Z,69.24
2023-03-29T09:18:08.060Z,69.24
2023-03-29T09:19:08.233Z,69.24
2023-03-29T09:20:08.621Z,69.24
2023-03-29T09:21:08.900Z,69.34
2023-03-29T09:22:09.165Z,69.34
2023-03-29T09:23:09.389Z,69.21
2023-03-29T09:24:09.720Z,69.01
2023-03-29T09:25:10.069Z,68.70
2023-03-29T09:26:10.281Z,68.46
2023-03-29T09:27:10.911Z,68.16
2023-03-29T09:28:11.606Z,67.71
2023-03-29T09:29:11.154Z,67.51
2023-03-29T09:30:12.403Z,67.21
2023-03-29T09:31:12.731Z,67.07
2023-03-29T09:32:12.014Z,66.77
2023-03-29T09:33:12.427Z,66.86
2023-03-29T09:34:14.393Z,66.53
2023-03-29T09:35:13.654Z,66.12
2023-03-29T09:36:13.190Z,66.02
2023-03-29T09:37:13.359Z,65.78
2023-03-29T09:38:13.604Z,65.34
2023-03-29T09:39:13.915Z,65.14
2023-03-29T09:40:14.367Z,64.70
2023-03-29T09:41:14.499Z,63.73
2023-03-29T09:42:14.816Z,63.01
2023-03-29T09:43:15.003Z,62.71
2023-03-29T09:45:16.620Z,62.71
2023-03-29T09:46:16.467Z,62.81
2023-03-29T09:47:17.128Z,62.92
2023-03-29T09:48:16.406Z,63.56
2023-03-29T09:49:17.447Z,63.79
2023-03-29T09:50:29.651Z,64.20
2023-03-29T09:51:18.212Z,64.50
2023-03-29T09:52:17.480Z,64.81
2023-03-29T09:53:17.782Z,64.26
2023-03-29T09:54:17.997Z,64.06
2023-03-29T09:55:19.195Z,63.73
2023-03-29T09:56:18.556Z,63.09
2023-03-29T09:57:18.965Z,63.29
2023-03-29T09:58:19.179Z,62.98
2023-03-29T09:59:19.374Z,62.65
2023-03-29T10:00:19.637Z,61.91
2023-03-29T10:01:19.937Z,61.71
2023-03-29T10:02:20.190Z,61.44
2023-03-29T10:03:20.463Z,60.40
2023-03-29T10:04:20.737Z,59.56
2023-03-29T10:05:21.082Z,59.33
2023-03-29T10:06:21.332Z,58.72
2023-03-29T10:07:21.588Z,58.92
2023-03-29T10:08:22.795Z,58.72
2023-03-29T10:09:22.143Z,59.16
2023-03-29T10:10:22.420Z,59.59
2023-03-29T10:11:22.859Z,60.20
2023-03-29T10:12:22.968Z,59.99
2023-03-29T10:13:23.271Z,60.17
2023-03-29T10:14:23.500Z,60.10
2023-03-29T10:15:29.606Z,59.99
2023-03-29T10:16:25.051Z,59.23
2023-03-29T10:17:24.396Z,59.03
2023-03-29T10:18:24.673Z,58.72
2023-03-29T10:19:24.926Z,58.92
2023-03-29T10:20:25.395Z,59.26
2023-03-29T10:21:25.475Z,59.43
2023-03-29T10:22:25.757Z,59.30
2023-03-29T10:23:26.118Z,58.06
2023-03-29T10:24:26.255Z,57.32
2023-03-29T10:25:26.609Z,56.92
2023-03-29T10:26:26.867Z,56.82
2023-03-29T10:27:27.129Z,56.28
2023-03-29T10:28:27.377Z,56.18
2023-03-29T10:29:27.608Z,55.68
2023-03-29T10:30:27.851Z,56.31
2023-03-29T10:31:28.113Z,55.68
2023-03-29T10:32:28.408Z,55.02
2023-03-29T10:33:28.652Z,53.90
2023-03-29T10:34:28.883Z,53.98
2023-03-29T10:35:29.249Z,53.38
2023-03-29T10:36:29.552Z,53.80
2023-03-29T10:37:29.765Z,53.93
2023-03-29T10:38:30.130Z,53.90
2023-03-29T10:39:30.348Z,54.00
2023-03-29T10:40:30.629Z,53.17
2023-03-29T10:41:31.195Z,52.94
2023-03-29T10:42:31.207Z,52.31
2023-03-29T10:43:31.642Z,51.68
2023-03-29T10:44:33.227Z,51.68
2023-03-29T10:45:32.172Z,51.38
2023-03-29T10:46:32.508Z,51.50
2023-03-29T10:47:32.776Z,52.28
2023-03-29T10:48:33.022Z,52.79
2023-03-29T10:49:33.296Z,52.76
2023-03-29T10:50:33.523Z,52.48
2023-03-29T10:51:33.968Z,53.05
2023-03-29T10:52:34.152Z,52.92
2023-03-29T10:53:34.350Z,52.54
2023-03-29T10:54:34.603Z,53.27
2023-03-29T10:55:34.919Z,53.47
2023-03-29T10:56:35.554Z,53.78
2023-03-29T10:57:35.490Z,53.58
2023-03-29T10:58:35.658Z,53.05
2023-03-29T10:59:35.996Z,53.14
2023-03-29T11:00:36.234Z,52.61
2023-03-29T11:01:37.420Z,52.48
2023-03-29T11:02:36.917Z,51.65
2023-03-29T11:03:37.201Z,50.70
2023-03-29T11:04:37.416Z,50.37
2023-03-29T11:05:37.581Z,49.64
2023-03-29T11:06:38.032Z,48.56
2023-03-29T11:07:38.248Z,47.39
2023-03-29T11:08:38.480Z,45.61
2023-03-29T11:09:38.940Z,43.84
2023-03-29T11:10:40.041Z,43.64
2023-03-29T11:11:39.372Z,44.40
2023-03-29T11:12:39.607Z,44.81
2023-03-29T11:13:39.953Z,44.63
2023-03-29T11:14:40.155Z,45.01
2023-03-29T11:15:40.446Z,46.83
2023-03-29T11:16:40.715Z,47.43
2023-03-29T11:17:41.053Z,47.00
2023-03-29T11:18:41.342Z,46.15
2023-03-29T11:19:41.542Z,46.28
2023-03-29T11:20:41.822Z,46.15
2023-03-29T11:21:42.177Z,45.73
2023-03-29T11:22:42.628Z,45.94
2023-03-29T11:23:42.761Z,45.51
2023-03-29T11:24:43.298Z,44.36
2023-03-29T11:25:43.306Z,43.42
2023-03-29T11:26:43.818Z,43.44
2023-03-29T11:27:43.890Z,43.42
2023-03-29T11:28:44.312Z,43.64
2023-03-29T11:29:44.622Z,43.30
2023-03-29T11:30:44.714Z,42.66
2023-03-29T11:31:45.174Z,42.35
2023-03-29T11:32:45.571Z,42.46
2023-03-29T11:33:45.672Z,43.50
2023-03-29T11:34:45.867Z,45.21
2023-03-29T11:35:46.153Z,45.91
2023-03-29T11:36:46.415Z,45.71
2023-03-29T11:37:46.643Z,46.34
2023-03-29T11:38:46.915Z,46.78
2023-03-29T11:39:47.174Z,47.74
2023-03-29T11:40:47.533Z,48.36
2023-03-29T11:41:47.797Z,48.56
2023-03-29T11:42:48.049Z,47.59
2023-03-29T11:43:48.409Z,46.31
2023-03-29T11:44:48.728Z,45.17
2023-03-29T11:45:49.035Z,44.64
2023-03-29T11:46:49.303Z,44.54
2023-03-29T11:47:49.591Z,44.72
2023-03-29T11:48:49.817Z,44.00
2023-03-29T11:49:50.167Z,43.70
2023-03-29T11:50:50.457Z,43.50
2023-03-29T11:51:50.702Z,44.00
2023-03-29T11:52:51.050Z,44.56
2023-03-29T11:53:51.271Z,44.99
2023-03-29T11:54:51.528Z,45.17
2023-03-29T11:55:51.776Z,44.87
2023-03-29T11:56:52.101Z,45.69
2023-03-29T11:57:52.326Z,46.31
2023-03-29T11:58:52.602Z,48.01
2023-03-29T11:59:52.917Z,48.92
2023-03-29T12:00:53.140Z,47.64
2023-03-29T12:01:53.705Z,47.46
2023-03-29T12:02:53.837Z,47.36
2023-03-29T12:03:54.161Z,47.00
2023-03-29T12:04:54.455Z,45.20
2023-03-29T12:05:54.700Z,43.63
2023-03-29T12:06:54.925Z,42.99
2023-03-29T12:07:55.229Z,41.58
2023-03-29T12:08:55.458Z,42.10
2023-03-29T12:09:55.836Z,41.97
2023-03-29T12:10:56.100Z,41.74
2023-03-29T12:11:56.359Z,41.05
2023-03-29T12:12:56.582Z,41.58
2023-03-29T12:13:56.816Z,42.19
2023-03-29T12:14:57.073Z,41.80
2023-03-29T12:15:57.295Z,42.74
2023-03-29T12:16:57.632Z,43.68
2023-03-29T12:17:57.850Z,43.66
2023-03-29T12:18:58.658Z,44.20
2023-03-29T12:19:58.567Z,44.84
2023-03-29T12:20:58.928Z,46.61
2023-03-29T12:21:59.131Z,47.14
2023-03-29T12:22:59.363Z,48.01
2023-03-29T12:23:59.671Z,49.37
2023-03-29T12:25:00.010Z,49.57
2023-03-29T12:26:00.519Z,49.57
2023-03-29T12:27:00.763Z,49.57
2023-03-29T12:28:01.067Z,49.35
2023-03-29T12:29:01.251Z,48.72
2023-03-29T12:30:01.512Z,48.61
2023-03-29T12:31:02.083Z,48.11
2023-03-29T12:32:02.183Z,48.21
2023-03-29T12:33:02.375Z,48.09
2023-03-29T12:34:02.640Z,47.89
2023-03-29T12:35:02.848Z,48.11
2023-03-29T12:36:03.263Z,48.24
2023-03-29T12:37:03.554Z,47.59
2023-03-29T12:38:03.827Z,47.41
2023-03-29T12:39:04.108Z,47.49
2023-03-29T12:40:04.358Z,47.28
2023-03-29T12:41:04.811Z,47.16
2023-03-29T12:42:04.919Z,46.54
2023-03-29T12:43:05.184Z,46.01
2023-03-29T12:44:05.442Z,46.01
2023-03-29T12:45:05.784Z,46.03
2023-03-29T12:46:06.223Z,46.64
2023-03-29T12:47:06.374Z,46.66
2023-03-29T12:48:06.601Z,46.76
2023-03-29T12:49:06.843Z,46.96
2023-03-29T12:50:07.149Z,47.06
2023-03-29T12:51:07.294Z,47.39
2023-03-29T12:52:07.664Z,47.59
2023-03-29T12:53:07.881Z,47.71
2023-03-29T12:54:08.200Z,48.09
2023-03-29T12:55:08.412Z,47.79
2023-03-29T12:56:08.806Z,47.46
2023-03-29T12:57:08.930Z,47.36